Time,TemperatureF,DewpointF,PressureIn,WindDirection,WindDirectionDegrees,WindSpeedMPH,WindSpeedGustMPH,Humidity,HourlyPrecipIn,Conditions,Clouds,dailyrainin,SoftwareType,DateUTC
2013-04-10 00:00:00,61.3,39.8,30.12,NE,43,0.0,0.0,45,0.00,,---,0.00,VWS V14.01,2013-04-10 04:00:00,
2013-04-10 00:05:00,61.2,40.2,30.12,NE,43,0.0,0.0,46,0.00,,---,0.00,VWS V14.01,2013-04-10 04:05:00,
2013-04-10 00:10:00,61.0,40.1,30.12,NE,43,0.0,0.0,46,0.00,,---,0.00,VWS V14.01,2013-04-10 04:10:00,
2013-04-10 00:15:00,60.8,39.9,30.12,NE,43,0.0,0.0,46,0.00,,---,0.00,VWS V14.01,2013-04-10 04:15:00,
2013-04-10 00:20:00,60.6,40.3,30.12,NE,43,0.0,0.0,47,0.00,,---,0.00,VWS V14.01,2013-04-10 04:20:00,
2013-04-10 00:26:00,60.6,40.3,30.12,NE,43,0.0,0.0,47,0.00,,---,0.00,VWS V14.01,2013-04-10 04:26:00,
2013-04-10 00:31:00,60.4,40.1,30.12,NE,43,0.0,0.0,47,0.00,,---,0.00,VWS V14.01,2013-04-10 04:31:00,
2013-04-10 00:36:00,60.4,40.7,30.12,NE,43,0.0,0.0,48,0.00,,---,0.00,VWS V14.01,2013-04-10 04:36:00,
2013-04-10 00:41:00,60.3,40.5,30.12,NE,43,0.0,0.0,48,0.00,,---,0.00,VWS V14.01,2013-04-10 04:41:00,
2013-04-10 00:46:00,60.1,40.3,30.12,NE,43,0.0,0.0,48,0.00,,---,0.00,VWS V14.01,2013-04-10 04:46:00,
2013-04-10 00:51:00,59.7,40.0,30.12,NE,43,0.0,0.0,48,0.00,,---,0.00,VWS V14.01,2013-04-10 04:51:00,
2013-04-10 00:56:00,59.5,39.8,30.12,NE,43,0.0,0.0,48,0.00,,---,0.00,VWS V14.01,2013-04-10 04:56:00,
2013-04-10 01:01:00,59.4,40.2,30.12,NE,43,0.0,0.0,49,0.00,,---,0.00,VWS V14.01,2013-04-10 05:01:00,
2013-04-10 01:06:00,59.4,40.2,30.12,NE,43,0.0,0.0,49,0.00,,---,0.00,VWS V14.01,2013-04-10 05:06:00,
2013-04-10 01:11:00,59.2,40.6,30.12,NE,43,0.0,0.0,50,0.00,,---,0.00,VWS V14.01,2013-04-10 05:11:00,
2013-04-10 01:16:00,59.2,40.6,30.12,NE,43,0.0,0.0,50,0.00,,---,0.00,VWS V14.01,2013-04-10 05:16:00,
2013-04-10 01:21:00,59.0,40.4,30.12,NE,43,0.0,0.0,50,0.00,,---,0.00,VWS V14.01,2013-04-10 05:21:00,
2013-04-10 01:26:00,59.0,40.9,30.12,NE,43,0.0,0.0,51,0.00,,---,0.00,VWS V14.01,2013-04-10 05:26:00,
2013-04-10 01:31:00,58.8,40.8,30.12,NE,43,0.0,0.0,51,0.00,,---,0.00,VWS V14.01,2013-04-10 05:31:00,
2013-04-10 01:37:00,58.6,41.1,30.12,NE,43,0.0,0.0,52,0.00,,---,0.00,VWS V14.01,2013-04-10 05:37:00,
2013-04-10 01:42:00,58.6,41.1,30.12,NE,43,0.0,0.0,52,0.00,,---,0.00,VWS V14.01,2013-04-10 05:42:00,
2013-04-10 01:47:00,58.5,40.9,30.09,NE,43,0.0,0.0,52,0.00,,---,0.00,VWS V14.01,2013-04-10 05:47:00,
2013-04-10 01:52:00,58.3,41.2,30.09,NE,43,0.0,0.0,53,0.00,,---,0.00,VWS V14.01,2013-04-10 05:52:00,
2013-04-10 01:57:00,58.1,41.1,30.09,NE,43,0.0,0.0,53,0.00,,---,0.00,VWS V14.01,2013-04-10 05:57:00,
2013-04-10 02:02:00,58.1,41.1,30.09,NE,43,0.0,0.0,53,0.00,,---,0.00,VWS V14.01,2013-04-10 06:02:00,
2013-04-10 02:07:00,57.9,41.4,30.09,NE,43,0.0,0.0,54,0.00,,---,0.00,VWS V14.01,2013-04-10 06:07:00,
2013-04-10 02:12:00,57.7,41.2,30.09,NE,43,0.0,0.0,54,0.00,,---,0.00,VWS V14.01,2013-04-10 06:12:00,
2013-04-10 02:17:00,57.7,41.2,30.09,NE,43,0.0,0.0,54,0.00,,---,0.00,VWS V14.01,2013-04-10 06:17:00,
2013-04-10 02:22:00,57.6,41.5,30.09,NE,43,0.0,0.0,55,0.00,,---,0.00,VWS V14.01,2013-04-10 06:22:00,
2013-04-10 02:27:00,57.4,41.4,30.09,NE,43,0.0,0.0,55,0.00,,---,0.00,VWS V14.01,2013-04-10 06:27:00,
2013-04-10 02:32:00,57.2,41.2,30.09,NE,43,0.0,0.0,55,0.00,,---,0.00,VWS V14.01,2013-04-10 06:32:00,
2013-04-10 02:37:00,57.2,41.2,30.09,NE,43,0.0,0.0,55,0.00,,---,0.00,VWS V14.01,2013-04-10 06:37:00,
2013-04-10 02:42:00,57.0,41.0,30.09,NE,43,0.0,0.0,55,0.00,,---,0.00,VWS V14.01,2013-04-10 06:42:00,
2013-04-10 02:47:00,56.8,40.9,30.06,NE,43,0.0,0.0,55,0.00,,---,0.00,VWS V14.01,2013-04-10 06:47:00,
2013-04-10 02:52:00,56.8,40.9,30.06,NE,43,0.0,0.0,55,0.00,,---,0.00,VWS V14.01,2013-04-10 06:52:00,
2013-04-10 02:57:00,56.7,41.2,30.06,NE,43,0.0,0.0,56,0.00,,---,0.00,VWS V14.01,2013-04-10 06:57:00,
2013-04-10 03:02:00,56.5,41.0,30.06,NE,43,0.0,0.0,56,0.00,,---,0.00,VWS V14.01,2013-04-10 07:02:00,
2013-04-10 03:07:00,56.3,40.8,30.06,NE,43,0.0,0.0,56,0.00,,---,0.00,VWS V14.01,2013-04-10 07:07:00,
2013-04-10 03:12:00,56.3,40.8,30.06,NE,43,0.0,0.0,56,0.00,,---,0.00,VWS V14.01,2013-04-10 07:12:00,
2013-04-10 03:17:00,56.1,40.7,30.06,NE,43,0.0,0.0,56,0.00,,---,0.00,VWS V14.01,2013-04-10 07:17:00,
2013-04-10 14:26:00,84.2,54.4,30.03,WSW,247,0.0,0.0,36,0.00,,---,0.00,VWS V14.01,2013-04-10 18:26:00,
2013-04-10 14:31:00,84.0,54.2,30.03,NNE,28,2.7,2.7,36,0.00,,---,0.00,VWS V14.01,2013-04-10 18:31:00,
2013-04-10 14:36:00,83.8,54.1,30.03,NE,54,2.7,4.0,36,0.00,,---,0.00,VWS V14.01,2013-04-10 18:36:00,
2013-04-10 14:42:00,84.0,54.2,30.03,ESE,110,2.7,7.6,36,0.00,,---,0.00,VWS V14.01,2013-04-10 18:42:00,
2013-04-10 14:47:00,84.7,54.9,30.00,NE,54,5.4,5.4,36,0.00,,---,0.00,VWS V14.01,2013-04-10 18:47:00,
2013-04-10 14:52:00,85.3,55.3,30.00,SE,126,3.6,4.0,36,0.00,,---,0.00,VWS V14.01,2013-04-10 18:52:00,
2013-04-10 14:57:00,84.6,54.7,30.00,NE,36,3.6,3.6,36,0.00,,---,0.00,VWS V14.01,2013-04-10 18:57:00,
2013-04-10 15:02:00,84.7,54.9,30.03,SSE,156,3.6,3.6,36,0.00,,---,0.00,VWS V14.01,2013-04-10 19:02:00,
2013-04-10 15:07:00,85.5,55.5,30.03,South,173,2.7,3.1,36,0.00,,---,0.00,VWS V14.01,2013-04-10 19:07:00,
2013-04-10 15:12:00,85.6,55.7,30.03,ENE,76,6.3,6.3,36,0.00,,---,0.00,VWS V14.01,2013-04-10 19:12:00,
2013-04-10 15:17:00,85.1,55.2,30.03,East,91,3.1,8.7,36,0.00,,---,0.00,VWS V14.01,2013-04-10 19:17:00,
2013-04-10 15:22:00,84.7,54.9,30.03,East,81,0.0,2.7,36,0.00,,---,0.00,VWS V14.01,2013-04-10 19:22:00,
2013-04-10 15:27:00,84.9,55.0,30.03,South,191,2.7,4.0,36,0.00,,---,0.00,VWS V14.01,2013-04-10 19:27:00,
2013-04-10 15:32:00,85.1,55.2,30.00,ENE,77,2.2,2.7,36,0.00,,---,0.00,VWS V14.01,2013-04-10 19:32:00,
2013-04-10 15:37:00,84.9,55.0,30.00,ESE,120,2.7,6.3,36,0.00,,---,0.00,VWS V14.01,2013-04-10 19:37:00,
2013-04-10 15:42:00,84.9,55.0,30.00,ENE,62,3.6,3.6,36,0.00,,---,0.00,VWS V14.01,2013-04-10 19:42:00,
2013-04-10 15:47:00,84.6,54.7,30.00,ENE,68,2.2,2.2,36,0.00,,---,0.00,VWS V14.01,2013-04-10 19:47:00,
2013-04-10 15:52:00,84.4,54.5,30.00,East,79,0.0,4.9,36,0.00,,---,0.00,VWS V14.01,2013-04-10 19:52:00,
2013-04-10 15:57:00,84.6,54.7,30.00,NE,38,4.0,4.0,36,0.00,,---,0.00,VWS V14.01,2013-04-10 19:57:00,
2013-04-10 16:02:00,85.1,55.2,30.00,East,82,0.0,0.0,36,0.00,,---,0.00,VWS V14.01,2013-04-10 20:02:00,
2013-04-10 16:07:00,85.1,55.2,30.00,SSE,164,2.2,2.2,36,0.00,,---,0.00,VWS V14.01,2013-04-10 20:07:00,
2013-04-10 16:12:00,84.9,55.0,30.00,ENE,58,4.9,6.3,36,0.00,,---,0.00,VWS V14.01,2013-04-10 20:12:00,
2013-04-10 16:17:00,84.6,54.7,30.00,ENE,64,0.0,0.0,36,0.00,,---,0.00,VWS V14.01,2013-04-10 20:17:00,
2013-04-10 16:22:00,84.4,54.5,30.00,SE,138,2.2,2.7,36,0.00,,---,0.00,VWS V14.01,2013-04-10 20:22:00,
2013-04-10 16:27:00,84.6,54.7,30.00,SSE,162,2.7,3.6,36,0.00,,---,0.00,VWS V14.01,2013-04-10 20:27:00,
2013-04-10 16:32:00,84.7,54.9,30.00,South,191,2.2,2.2,36,0.00,,---,0.00,VWS V14.01,2013-04-10 20:32:00,
2013-04-10 16:37:00,85.1,55.2,30.00,ENE,67,3.6,4.0,36,0.00,,---,0.00,VWS V14.01,2013-04-10 20:37:00,
2013-04-10 16:42:00,84.9,55.0,30.00,SSE,156,0.0,0.0,36,0.00,,---,0.00,VWS V14.01,2013-04-10 20:42:00,
2013-04-10 16:47:00,85.3,55.3,30.00,East,95,2.7,3.1,36,0.00,,---,0.00,VWS V14.01,2013-04-10 20:47:00,
2013-04-10 16:52:00,84.9,55.0,30.00,East,87,3.6,3.6,36,0.00,,---,0.00,VWS V14.01,2013-04-10 20:52:00,
2013-04-10 16:57:00,84.2,54.4,30.00,NE,46,3.1,3.1,36,0.00,,---,0.00,VWS V14.01,2013-04-10 20:57:00,
2013-04-10 17:02:00,83.8,54.1,30.00,ENE,72,3.1,3.1,36,0.00,,---,0.00,VWS V14.01,2013-04-10 21:02:00,
2013-04-10 17:07:00,83.8,54.1,30.00,North,349,4.9,6.3,36,0.00,,---,0.00,VWS V14.01,2013-04-10 21:07:00,
2013-04-10 17:12:00,84.0,54.2,30.00,ENE,71,5.4,5.4,36,0.00,,---,0.00,VWS V14.01,2013-04-10 21:12:00,
2013-04-10 17:17:00,83.7,53.9,30.00,NNE,20,2.7,3.1,36,0.00,,---,0.00,VWS V14.01,2013-04-10 21:17:00,
2013-04-10 17:22:00,83.1,53.4,30.00,NNE,29,0.0,3.1,36,0.00,,---,0.00,VWS V14.01,2013-04-10 21:22:00,
2013-04-10 17:27:00,82.8,53.1,30.00,NNE,33,2.7,3.1,36,0.00,,---,0.00,VWS V14.01,2013-04-10 21:27:00,
2013-04-10 17:32:00,82.4,52.8,30.00,NNW,339,0.0,0.0,36,0.00,,---,0.00,VWS V14.01,2013-04-10 21:32:00,
2013-04-10 17:37:00,82.8,53.1,30.00,East,83,4.0,4.0,36,0.00,,---,0.00,VWS V14.01,2013-04-10 21:37:00,
2013-04-10 17:42:00,82.8,53.1,30.00,ENE,58,3.6,3.6,36,0.00,,---,0.00,VWS V14.01,2013-04-10 21:42:00,
2013-04-10 17:47:00,82.8,53.1,30.00,ESE,110,3.1,4.0,36,0.00,,---,0.00,VWS V14.01,2013-04-10 21:47:00,
2013-04-10 17:52:00,82.8,53.1,30.00,East,90,3.6,3.6,36,0.00,,---,0.00,VWS V14.01,2013-04-10 21:52:00,
2013-04-10 17:57:00,82.4,52.8,30.00,ENE,78,3.6,3.6,36,0.00,,---,0.00,VWS V14.01,2013-04-10 21:57:00,
2013-04-10 18:02:00,82.2,53.4,30.00,ENE,58,3.1,5.4,37,0.00,,---,0.00,VWS V14.01,2013-04-10 22:02:00,
2013-04-10 18:07:00,82.0,53.2,30.00,ENE,58,4.9,4.9,37,0.00,,---,0.00,VWS V14.01,2013-04-10 22:07:00,
2013-04-10 18:12:00,81.7,52.9,30.00,NE,38,3.6,4.9,37,0.00,,---,0.00,VWS V14.01,2013-04-10 22:12:00,
2013-04-10 18:18:00,81.5,52.7,30.00,East,86,2.7,4.0,37,0.00,,---,0.00,VWS V14.01,2013-04-10 22:18:00,
2013-04-10 18:23:00,81.3,54.0,30.00,ENE,64,4.0,6.3,39,0.00,,---,0.00,VWS V14.01,2013-04-10 22:23:00,
2013-04-10 18:28:00,81.1,53.9,30.00,East,79,3.1,3.6,39,0.00,,---,0.00,VWS V14.01,2013-04-10 22:28:00,
2013-04-10 18:33:00,81.0,53.7,30.00,East,99,0.0,3.6,39,0.00,,---,0.00,VWS V14.01,2013-04-10 22:33:00,
2013-04-10 18:38:00,80.6,53.4,30.00,ENE,68,3.6,6.3,39,0.00,,---,0.00,VWS V14.01,2013-04-10 22:38:00,
2013-04-10 18:43:00,80.6,53.4,30.00,NNE,28,2.2,3.6,39,0.00,,---,0.00,VWS V14.01,2013-04-10 22:43:00,
2013-04-10 18:48:00,80.6,53.4,30.00,ENE,74,3.1,6.3,39,0.00,,---,0.00,VWS V14.01,2013-04-10 22:48:00,
2013-04-10 18:53:00,80.6,53.4,30.00,NE,41,0.0,0.0,39,0.00,,---,0.00,VWS V14.01,2013-04-10 22:53:00,
2013-04-10 18:58:00,80.4,53.9,30.00,East,86,3.6,5.4,40,0.00,,---,0.00,VWS V14.01,2013-04-10 22:58:00,
2013-04-10 19:03:00,80.1,53.6,30.00,East,90,3.6,3.6,40,0.00,,---,0.00,VWS V14.01,2013-04-10 23:03:00,
2013-04-10 19:08:00,79.7,53.3,30.00,ESE,114,2.2,2.7,40,0.00,,---,0.00,VWS V14.01,2013-04-10 23:08:00,
2013-04-10 19:13:00,79.3,53.0,30.00,SSW,194,2.7,7.2,40,0.00,,---,0.00,VWS V14.01,2013-04-10 23:13:00,
2013-04-10 19:18:00,79.2,52.8,30.00,SSW,209,0.0,0.0,40,0.00,,---,0.00,VWS V14.01,2013-04-10 23:18:00,
2013-04-10 19:23:00,78.8,52.5,30.00,NE,50,2.2,2.2,40,0.00,,---,0.00,VWS V14.01,2013-04-10 23:23:00,
2013-04-10 19:28:00,78.4,52.1,30.00,East,79,0.0,0.0,40,0.00,,---,0.00,VWS V14.01,2013-04-10 23:28:00,
2013-04-10 19:33:00,78.3,52.0,30.00,ENE,73,0.0,5.8,40,0.00,,---,0.00,VWS V14.01,2013-04-10 23:33:00,
2013-04-10 19:38:00,77.9,51.7,30.00,NE,56,0.0,3.1,40,0.00,,---,0.00,VWS V14.01,2013-04-10 23:38:00,
2013-04-10 19:43:00,77.5,51.3,30.00,East,99,2.2,7.6,40,0.00,,---,0.00,VWS V14.01,2013-04-10 23:43:00,
2013-04-10 19:48:00,77.2,51.0,30.00,North,10,2.2,3.6,40,0.00,,---,0.00,VWS V14.01,2013-04-10 23:48:00,
2013-04-10 19:53:00,76.8,51.4,30.00,East,79,6.3,6.3,41,0.00,,---,0.00,VWS V14.01,2013-04-10 23:53:00,
2013-04-10 19:58:00,76.5,51.0,30.00,SE,136,2.2,2.2,41,0.00,,---,0.00,VWS V14.01,2013-04-10 23:58:00,
2013-04-10 20:03:00,76.3,50.9,30.00,South,189,0.0,0.0,41,0.00,,---,0.00,VWS V14.01,2013-04-11 00:03:00,
2013-04-10 20:08:00,75.9,50.5,30.00,ENE,70,2.2,3.1,41,0.00,,---,0.00,VWS V14.01,2013-04-11 00:08:00,
2013-04-10 20:13:00,75.6,50.2,30.00,South,171,4.0,4.0,41,0.00,,---,0.00,VWS V14.01,2013-04-11 00:13:00,
2013-04-10 20:18:00,75.4,50.1,30.00,ENE,62,2.2,4.0,41,0.00,,---,0.00,VWS V14.01,2013-04-11 00:18:00,
2013-04-10 20:23:00,75.0,49.8,30.00,ESE,104,5.8,5.8,41,0.00,,---,0.00,VWS V14.01,2013-04-11 00:23:00,
2013-04-10 20:28:00,74.8,49.6,30.00,East,84,0.0,3.6,41,0.00,,---,0.00,VWS V14.01,2013-04-11 00:28:00,
2013-04-10 20:33:00,74.7,50.1,30.00,NE,50,0.0,0.0,42,0.00,,---,0.00,VWS V14.01,2013-04-11 00:33:00,
2013-04-10 20:38:00,74.5,49.9,30.00,East,88,0.0,3.1,42,0.00,,---,0.00,VWS V14.01,2013-04-11 00:38:00,
2013-04-10 20:43:00,74.3,49.8,30.00,ENE,72,2.7,2.7,42,0.00,,---,0.00,VWS V14.01,2013-04-11 00:43:00,
2013-04-10 20:48:00,74.1,49.6,30.00,ENE,70,0.0,0.0,42,0.00,,---,0.00,VWS V14.01,2013-04-11 00:48:00,
2013-04-10 20:53:00,73.9,49.4,30.00,ENE,65,2.2,2.2,42,0.00,,---,0.00,VWS V14.01,2013-04-11 00:53:00,
2013-04-10 20:58:00,73.8,49.3,30.00,ENE,71,2.2,2.2,42,0.00,,---,0.00,VWS V14.01,2013-04-11 00:58:00,
2013-04-10 21:03:00,73.4,48.9,30.00,ENE,65,0.0,0.0,42,0.00,,---,0.00,VWS V14.01,2013-04-11 01:03:00,
2013-04-10 21:08:00,73.2,49.4,30.00,ESE,113,3.1,3.1,43,0.00,,---,0.00,VWS V14.01,2013-04-11 01:08:00,
2013-04-10 21:13:00,73.0,49.2,30.00,ENE,63,3.1,4.0,43,0.00,,---,0.00,VWS V14.01,2013-04-11 01:13:00,
2013-04-10 21:18:00,72.9,49.1,30.00,NE,39,0.0,0.0,43,0.00,,---,0.00,VWS V14.01,2013-04-11 01:18:00,
2013-04-10 21:23:00,72.7,50.1,30.00,East,83,3.1,3.1,45,0.00,,---,0.00,VWS V14.01,2013-04-11 01:23:00,
2013-04-10 21:28:00,72.5,50.0,30.03,ENE,71,2.7,3.6,45,0.00,,---,0.00,VWS V14.01,2013-04-11 01:28:00,
2013-04-10 21:33:00,72.3,49.2,30.03,ESE,112,0.0,0.0,44,0.00,,---,0.00,VWS V14.01,2013-04-11 01:33:00,
2013-04-10 21:38:00,72.3,49.8,30.03,ENE,75,0.0,4.0,45,0.00,,---,0.00,VWS V14.01,2013-04-11 01:38:00,
2013-04-10 21:43:00,72.0,50.1,30.03,East,99,0.0,0.0,46,0.00,,---,0.00,VWS V14.01,2013-04-11 01:43:00,
2013-04-10 21:48:00,71.8,49.9,30.03,ESE,108,0.0,0.0,46,0.00,,---,0.00,VWS V14.01,2013-04-11 01:48:00,
2013-04-10 21:53:00,71.8,49.9,30.03,ESE,103,0.0,0.0,46,0.00,,---,0.00,VWS V14.01,2013-04-11 01:53:00,
2013-04-10 21:58:00,71.6,52.5,30.00,SE,130,2.7,3.1,51,0.00,,---,0.00,VWS V14.01,2013-04-11 01:58:00,
2013-04-10 22:03:00,71.4,50.2,30.00,NNE,30,2.7,2.7,47,0.00,,---,0.00,VWS V14.01,2013-04-11 02:03:00,
2013-04-10 22:08:00,71.2,51.1,30.00,SSW,194,0.0,0.0,49,0.00,,---,0.00,VWS V14.01,2013-04-11 02:08:00,
2013-04-10 22:13:00,71.1,51.0,30.03,NNE,31,0.0,0.0,49,0.00,,---,0.00,VWS V14.01,2013-04-11 02:13:00,
2013-04-10 22:18:00,70.9,50.8,30.03,NE,46,0.0,0.0,49,0.00,,---,0.00,VWS V14.01,2013-04-11 02:18:00,
2013-04-10 22:23:00,70.9,51.9,30.03,ESE,115,0.0,0.0,51,0.00,,---,0.00,VWS V14.01,2013-04-11 02:23:00,
2013-04-10 22:28:00,70.7,51.2,30.03,SE,128,0.0,0.0,50,0.00,,---,0.00,VWS V14.01,2013-04-11 02:28:00,
2013-04-10 22:33:00,70.5,51.5,30.03,NE,34,0.0,0.0,51,0.00,,---,0.00,VWS V14.01,2013-04-11 02:33:00,
2013-04-10 22:38:00,70.5,52.1,30.03,ENE,68,0.0,0.0,52,0.00,,---,0.00,VWS V14.01,2013-04-11 02:38:00,
2013-04-10 22:43:00,70.3,51.9,30.03,ENE,75,0.0,0.0,52,0.00,,---,0.00,VWS V14.01,2013-04-11 02:43:00,
2013-04-10 22:48:00,70.3,51.9,30.00,SE,129,0.0,0.0,52,0.00,,---,0.00,VWS V14.01,2013-04-11 02:48:00,
2013-04-10 22:53:00,70.3,52.4,30.00,East,85,0.0,0.0,53,0.00,,---,0.00,VWS V14.01,2013-04-11 02:53:00,
2013-04-10 22:58:00,70.3,52.9,30.00,ENE,68,2.2,3.1,54,0.00,,---,0.00,VWS V14.01,2013-04-11 02:58:00,
2013-04-10 23:03:00,70.2,52.2,30.00,East,87,0.0,3.1,53,0.00,,---,0.00,VWS V14.01,2013-04-11 03:03:00,
2013-04-10 23:08:00,70.0,52.6,30.00,ENE,72,0.0,0.0,54,0.00,,---,0.00,VWS V14.01,2013-04-11 03:08:00,
2013-04-10 23:13:00,70.0,52.6,30.00,ESE,122,0.0,0.0,54,0.00,,---,0.00,VWS V14.01,2013-04-11 03:13:00,
2013-04-10 23:18:00,70.0,53.1,30.00,SE,126,0.0,0.0,55,0.00,,---,0.00,VWS V14.01,2013-04-11 03:18:00,
2013-04-10 23:23:00,69.8,53.4,30.00,South,170,0.0,0.0,56,0.00,,---,0.00,VWS V14.01,2013-04-11 03:23:00,
2013-04-10 23:28:00,69.6,53.2,30.00,SSE,149,0.0,0.0,56,0.00,,---,0.00,VWS V14.01,2013-04-11 03:28:00,
2013-04-10 23:33:00,69.6,54.7,30.00,SSE,150,0.0,0.0,59,0.00,,---,0.00,VWS V14.01,2013-04-11 03:33:00,
2013-04-10 23:38:00,69.4,53.6,30.00,SSE,165,0.0,0.0,57,0.00,,---,0.00,VWS V14.01,2013-04-11 03:38:00,
2013-04-10 23:43:00,69.4,53.6,30.00,ENE,66,2.7,2.7,57,0.00,,---,0.00,VWS V14.01,2013-04-11 03:43:00,
2013-04-10 23:48:00,69.4,53.6,30.00,ESE,113,0.0,0.0,57,0.00,,---,0.00,VWS V14.01,2013-04-11 03:48:00,
2013-04-10 23:53:00,69.3,52.9,30.00,ESE,113,0.0,0.0,56,0.00,,---,0.00,VWS V14.01,2013-04-11 03:53:00,
2013-04-10 23:58:00,69.1,52.7,30.00,ESE,113,0.0,0.0,56,0.00,,---,0.00,VWS V14.01,2013-04-11 03:58:00,